createdAt,value
2023-04-13T00:02:46.147Z,56.00
2023-04-13T00:05:52.311Z,55.93
2023-04-13T00:08:54.208Z,55.88
2023-04-13T00:11:57.603Z,55.82
2023-04-13T00:14:59.285Z,55.89
2023-04-13T00:18:01.129Z,55.90
2023-04-13T00:21:02.940Z,56.00
2023-04-13T00:24:04.978Z,56.05
2023-04-13T00:27:08.110Z,56.04
2023-04-13T00:30:12.148Z,55.96
2023-04-13T00:33:13.943Z,55.98
2023-04-13T00:36:16.080Z,56.02
2023-04-13T00:39:22.415Z,56.05
2023-04-13T00:42:24.823Z,55.95
2023-04-13T00:45:27.639Z,56.14
2023-04-13T00:48:29.638Z,56.19
2023-04-13T00:51:32.489Z,56.28
2023-04-13T00:54:35.109Z,56.27
2023-04-13T00:57:40.024Z,56.25
2023-04-13T01:00:42.590Z,56.19
2023-04-13T01:03:44.293Z,56.26
2023-04-13T01:07:12.402Z,56.28
2023-04-13T01:10:21.202Z,56.34
2023-04-13T01:13:29.727Z,56.41
2023-04-13T01:16:50.544Z,56.47
2023-04-13T01:19:59.460Z,56.52
2023-04-13T01:23:30.645Z,56.59
2023-04-13T01:26:49.572Z,56.53
2023-04-13T01:29:51.604Z,56.57
2023-04-13T01:32:55.108Z,56.70
2023-04-13T01:36:02.394Z,56.73
2023-04-13T01:39:05.076Z,56.81
2023-04-13T01:42:07.782Z,56.95
2023-04-13T01:45:19.465Z,57.24
2023-04-13T01:48:33.671Z,57.33
2023-04-13T01:51:45.387Z,57.34
2023-04-13T01:54:51.240Z,57.73
2023-04-13T01:57:56.265Z,57.91
2023-04-13T02:00:58.150Z,57.99
2023-04-13T02:04:02.220Z,58.12
2023-04-13T02:07:06.010Z,58.17
2023-04-13T02:10:11.408Z,58.14
2023-04-13T02:13:13.138Z,58.22
2023-04-13T02:16:15.179Z,58.18
2023-04-13T02:19:16.920Z,58.31
2023-04-13T02:22:18.578Z,58.38
2023-04-13T02:25:23.278Z,58.34
2023-04-13T02:28:27.118Z,58.35
2023-04-13T02:31:31.178Z,58.33
2023-04-13T02:34:33.424Z,58.42
2023-04-13T02:37:37.436Z,58.45
2023-04-13T02:40:39.279Z,58.47
2023-04-13T02:43:41.426Z,58.53
2023-04-13T02:46:43.471Z,58.52
2023-04-13T02:49:49.087Z,58.59
2023-04-13T02:53:01.707Z,58.55
2023-04-13T02:56:05.051Z,58.54
2023-04-13T02:59:06.882Z,58.62
2023-04-13T03:02:09.288Z,58.64
2023-04-13T03:05:12.370Z,58.65
2023-04-13T03:08:14.260Z,58.69
2023-04-13T03:11:25.685Z,58.71
2023-04-13T03:14:41.619Z,58.71
2023-04-13T03:17:44.939Z,58.76
2023-04-13T03:20:49.888Z,58.72
2023-04-13T03:23:52.541Z,58.78
2023-04-13T03:26:57.379Z,58.70
2023-04-13T03:30:04.910Z,58.78
2023-04-13T03:33:12.096Z,58.71
2023-04-13T03:36:14.569Z,58.74
2023-04-13T03:39:16.516Z,58.84
2023-04-13T03:42:18.306Z,58.79
2023-04-13T03:45:25.998Z,58.87
2023-04-13T03:48:28.623Z,58.92
2023-04-13T03:51:31.148Z,58.97
2023-04-13T03:54:34.634Z,59.04
2023-04-13T03:57:36.570Z,58.97
2023-04-13T04:00:40.690Z,58.90
2023-04-13T04:03:47.090Z,59.03
2023-04-13T04:06:48.919Z,58.98
2023-04-13T04:09:51.397Z,58.98
2023-04-13T04:12:53.679Z,58.96
2023-04-13T04:15:56.385Z,58.95
2023-04-13T04:18:58.210Z,58.95
2023-04-13T04:22:03.599Z,58.98
2023-04-13T04:25:08.233Z,58.90
2023-04-13T04:28:17.352Z,58.98
2023-04-13T04:31:21.003Z,58.88
2023-04-13T04:34:25.820Z,58.85
2023-04-13T04:37:27.517Z,58.85
2023-04-13T04:40:35.396Z,58.89
2023-04-13T04:43:38.544Z,58.79
2023-04-13T04:46:40.976Z,58.74
2023-04-13T04:49:45.364Z,58.72
2023-04-13T04:52:47.143Z,58.62
2023-04-13T04:55:52.762Z,58.66
2023-04-13T04:59:04.508Z,58.68
2023-04-13T05:02:12.539Z,58.62
2023-04-13T05:05:14.335Z,58.57
2023-04-13T05:08:16.130Z,58.47
2023-04-13T05:11:20.376Z,58.52
2023-04-13T05:14:22.316Z,58.45
2023-04-13T05:17:25.239Z,58.29
2023-04-13T05:20:27.981Z,58.33
2023-04-13T05:23:34.688Z,58.22
2023-04-13T05:26:42.634Z,58.16
2023-04-13T05:29:47.472Z,58.10
2023-04-13T05:32:51.157Z,58.14
2023-04-13T05:35:52.933Z,58.17
2023-04-13T05:38:58.499Z,58.11
2023-04-13T05:42:01.240Z,57.81
2023-04-13T05:45:09.019Z,57.75
2023-04-13T05:48:12.569Z,57.72
2023-04-13T05:51:17.533Z,57.48
2023-04-13T05:54:20.498Z,57.42
2023-04-13T05:57:23.576Z,57.31
2023-04-13T06:00:27.344Z,57.34
2023-04-13T06:03:34.187Z,57.27
2023-04-13T06:06:35.983Z,57.14
2023-04-13T06:09:37.807Z,56.93
2023-04-13T06:12:41.728Z,56.95
2023-04-13T06:15:43.454Z,56.59
2023-04-13T06:18:45.308Z,56.39
2023-04-13T06:21:47.009Z,56.53
2023-04-13T06:24:51.141Z,56.39
2023-04-13T06:27:53.798Z,56.01
2023-04-13T06:30:56.457Z,55.77
2023-04-13T06:33:58.332Z,55.31
2023-04-13T06:37:04.543Z,55.22
2023-04-13T06:40:14.321Z,55.29
2023-04-13T06:43:29.191Z,55.09
2023-04-13T06:46:57.464Z,55.18
2023-04-13T06:50:05.927Z,55.07
2023-04-13T06:53:07.880Z,55.22
2023-04-13T06:56:09.969Z,55.30
2023-04-13T06:59:12.231Z,55.18
2023-04-13T07:02:14.109Z,55.10
2023-04-13T07:05:16.611Z,54.80
2023-04-13T07:08:19.486Z,54.46
2023-04-13T07:11:24.112Z,54.02
2023-04-13T07:14:25.953Z,53.93
2023-04-13T07:17:28.096Z,53.76
2023-04-13T07:20:30.084Z,53.69
2023-04-13T07:23:33.425Z,53.57
2023-04-13T07:26:39.231Z,53.43
2023-04-13T07:29:41.227Z,53.39
2023-04-13T07:32:46.355Z,53.14
2023-04-13T07:35:49.695Z,53.30
2023-04-13T07:38:51.900Z,53.36
2023-04-13T07:41:54.272Z,53.24
2023-04-13T07:45:01.874Z,53.08
2023-04-13T07:48:05.319Z,52.82
2023-04-13T07:51:16.953Z,52.42
2023-04-13T07:54:19.048Z,52.49
2023-04-13T07:57:22.038Z,53.16
2023-04-13T08:00:29.444Z,52.53
2023-04-13T08:03:33.098Z,52.37
2023-04-13T08:06:36.467Z,51.91
2023-04-13T08:09:40.175Z,51.18
2023-04-13T08:12:41.956Z,50.73
2023-04-13T08:15:45.227Z,50.27
2023-04-13T08:18:47.521Z,50.01
2023-04-13T08:21:50.645Z,49.54
2023-04-13T08:24:52.771Z,49.02
2023-04-13T08:27:55.712Z,48.36
2023-04-13T08:30:58.139Z,47.77
2023-04-13T08:34:00.194Z,47.42
2023-04-13T08:37:02.183Z,47.39
2023-04-13T08:40:07.182Z,47.45
2023-04-13T08:43:09.182Z,46.72
2023-04-13T08:46:18.875Z,46.93
2023-04-13T08:49:22.807Z,46.63
2023-04-13T08:52:48.545Z,46.33
2023-04-13T08:55:54.100Z,46.03
2023-04-13T08:59:08.573Z,45.74
2023-04-13T09:02:11.309Z,45.28
2023-04-13T09:05:23.261Z,45.21
2023-04-13T09:08:36.686Z,45.31
2023-04-13T09:11:41.593Z,44.84
2023-04-13T09:14:43.450Z,44.76
2023-04-13T09:17:45.677Z,44.72
2023-04-13T09:20:57.299Z,44.45
2023-04-13T09:23:59.178Z,44.42
2023-04-13T09:27:02.068Z,44.46
2023-04-13T09:30:04.984Z,44.27
2023-04-13T09:33:09.781Z,43.77
2023-04-13T09:36:16.377Z,43.92
2023-04-13T09:39:26.998Z,43.89
2023-04-13T09:42:28.783Z,44.03
2023-04-13T09:45:35.861Z,44.07
2023-04-13T09:48:37.859Z,44.42
2023-04-13T09:51:41.395Z,44.82
2023-04-13T09:54:43.344Z,44.85
2023-04-13T09:57:45.239Z,44.61
2023-04-13T10:00:47.081Z,44.32
2023-04-13T10:03:49.566Z,44.08
2023-04-13T10:06:51.902Z,43.93
2023-04-13T10:09:53.842Z,43.63
2023-04-13T10:13:04.506Z,43.62
2023-04-13T10:16:24.087Z,43.30
2023-04-13T10:19:59.161Z,43.37
2023-04-13T10:23:05.953Z,43.00
2023-04-13T10:26:09.005Z,42.73
2023-04-13T10:29:13.879Z,43.80
2023-04-13T10:32:26.916Z,43.44
2023-04-13T10:46:10.584Z,42.22
2023-04-13T10:49:12.813Z,42.12
2023-04-13T10:52:15.241Z,42.37
2023-04-13T10:55:19.235Z,42.33
2023-04-13T10:58:22.415Z,42.42
2023-04-13T11:01:24.948Z,42.14
2023-04-13T11:04:26.843Z,42.11
2023-04-13T11:07:29.177Z,41.96
2023-04-13T11:10:31.811Z,41.85
2023-04-13T11:13:33.627Z,41.60
2023-04-13T11:16:45.464Z,41.50
2023-04-13T11:19:54.971Z,41.31
2023-04-13T11:22:57.191Z,41.01
2023-04-13T11:26:02.414Z,40.80
2023-04-13T11:29:04.537Z,40.53
2023-04-13T11:32:06.642Z,40.72
2023-04-13T11:35:10.144Z,40.92
2023-04-13T11:38:19.747Z,40.83
2023-04-13T11:41:21.609Z,41.07
2023-04-13T11:44:24.336Z,41.14
2023-04-13T11:47:26.662Z,41.21
2023-04-13T11:50:29.096Z,41.45
2023-04-13T11:53:32.963Z,41.84
2023-04-13T11:56:35.158Z,42.02
2023-04-13T11:59:38.052Z,41.91
2023-04-13T12:02:59.568Z,42.02
2023-04-13T12:06:04.104Z,42.13
2023-04-13T12:09:14.975Z,42.31
2023-04-13T12:15:43.534Z,42.48
2023-04-13T12:18:52.489Z,42.79
2023-04-13T12:21:57.192Z,43.02
2023-04-13T12:24:59.728Z,43.09
2023-04-13T12:28:02.680Z,43.35
2023-04-13T12:31:12.093Z,43.51
2023-04-13T12:34:13.933Z,43.72
2023-04-13T12:37:15.770Z,43.58
2023-04-13T12:40:17.871Z,43.74
2023-04-13T12:43:19.671Z,43.80
2023-04-13T12:46:21.579Z,43.72
2023-04-13T12:49:23.466Z,43.78
2023-04-13T12:52:27.942Z,43.87
2023-04-13T12:55:30.087Z,44.03
2023-04-13T12:58:31.946Z,44.16
2023-04-13T13:01:36.769Z,44.18
2023-04-13T13:04:38.625Z,44.47
2023-04-13T13:07:40.407Z,44.48
2023-04-13T13:10:42.200Z,44.64
2023-04-13T13:13:43.966Z,44.73
2023-04-13T13:16:46.130Z,44.81
2023-04-13T13:19:47.852Z,45.37
2023-04-13T13:22:49.668Z,45.99
2023-04-13T13:26:04.387Z,46.25
2023-04-13T13:29:13.279Z,46.59
2023-04-13T13:32:16.282Z,47.02
2023-04-13T13:35:19.192Z,47.30
2023-04-13T13:38:21.024Z,47.76
2023-04-13T13:41:24.794Z,47.92
2023-04-13T13:44:26.632Z,48.05
2023-04-13T13:47:28.675Z,48.26
2023-04-13T13:50:30.666Z,48.64
2023-04-13T13:53:34.189Z,48.78
2023-04-13T13:56:36.020Z,49.01
2023-04-13T13:59:38.028Z,49.29
2023-04-13T14:02:40.262Z,49.65
2023-04-13T14:05:45.030Z,49.76
2023-04-13T14:08:52.035Z,49.93
2023-04-13T14:11:54.163Z,51.89
2023-04-13T14:14:55.975Z,51.33
2023-04-13T14:21:56.210Z,51.13
2023-04-13T14:24:58.372Z,51.22
2023-04-13T14:28:00.520Z,51.26
2023-04-13T14:31:02.926Z,51.42
2023-04-13T14:34:04.725Z,51.57
2023-04-13T14:37:06.995Z,51.57
2023-04-13T14:40:13.852Z,51.73
2023-04-13T14:43:16.129Z,51.86
2023-04-13T14:46:18.141Z,52.15
2023-04-13T14:49:19.982Z,52.33
2023-04-13T14:52:22.129Z,52.38
2023-04-13T14:55:24.032Z,52.61
2023-04-13T14:58:25.986Z,52.68
2023-04-13T15:01:27.875Z,52.93
2023-04-13T15:04:30.177Z,53.12
2023-04-13T15:07:32.114Z,53.21
2023-04-13T15:10:34.525Z,53.56
2023-04-13T15:13:37.564Z,53.72
2023-04-13T15:16:39.373Z,54.07
2023-04-13T15:19:41.436Z,54.17
2023-04-13T15:22:43.434Z,54.32
2023-04-13T15:25:45.989Z,54.56
2023-04-13T15:28:47.964Z,54.74
2023-04-13T15:31:51.121Z,55.18
2023-04-13T15:34:55.745Z,55.53
2023-04-13T15:38:01.462Z,55.79
2023-04-13T15:41:03.151Z,55.94
2023-04-13T15:44:05.032Z,55.99
2023-04-13T15:47:06.865Z,56.34
2023-04-13T15:50:09.039Z,56.28
2023-04-13T15:53:10.710Z,56.45
2023-04-13T15:56:12.530Z,56.61
2023-04-13T15:59:14.280Z,56.74
2023-04-13T16:02:16.152Z,56.99
2023-04-13T16:05:19.053Z,57.15
2023-04-13T16:08:21.033Z,57.45
2023-04-13T16:11:22.667Z,57.75
2023-04-13T16:14:24.705Z,57.82
2023-04-13T16:17:30.416Z,58.02
2023-04-13T16:20:33.046Z,58.10
2023-04-13T16:23:35.032Z,58.17
2023-04-13T16:26:37.293Z,58.56
2023-04-13T16:29:41.008Z,58.74
2023-04-13T16:32:44.417Z,58.85
2023-04-13T16:35:46.151Z,59.02
2023-04-13T16:38:47.859Z,59.01
2023-04-13T16:41:50.785Z,59.14
2023-04-13T16:44:52.797Z,59.14
2023-04-13T16:47:55.139Z,59.44
2023-04-13T16:50:57.777Z,59.34
2023-04-13T16:53:59.625Z,59.41
2023-04-13T16:57:01.460Z,59.59
2023-04-13T17:00:08.881Z,59.67
2023-04-13T17:03:10.878Z,59.88
2023-04-13T17:06:12.815Z,59.85
2023-04-13T17:09:14.486Z,60.10
2023-04-13T17:12:16.214Z,60.09
2023-04-13T17:15:19.039Z,60.19
2023-04-13T17:18:20.933Z,60.17
2023-04-13T17:21:22.884Z,60.29
2023-04-13T17:24:24.797Z,60.50
2023-04-13T17:27:26.538Z,60.52
2023-04-13T17:30:31.680Z,60.61
2023-04-13T17:33:33.384Z,60.65
2023-04-13T17:36:35.025Z,60.84
2023-04-13T17:39:36.953Z,60.85
2023-04-13T17:42:38.724Z,61.11
2023-04-13T17:45:41.028Z,61.16
2023-04-13T17:48:42.802Z,61.14
2023-04-13T17:51:46.917Z,61.21
2023-04-13T17:54:48.669Z,61.43
2023-04-13T17:57:50.394Z,61.46
2023-04-13T18:00:52.164Z,61.49
2023-04-13T18:03:54.095Z,61.62
2023-04-13T18:06:56.163Z,61.58
2023-04-13T18:09:57.992Z,61.76
2023-04-13T18:13:00.383Z,61.81
2023-04-13T18:16:02.680Z,61.85
2023-04-13T18:19:04.528Z,62.05
2023-04-13T18:22:06.301Z,62.03
2023-04-13T18:25:09.031Z,62.10
2023-04-13T18:28:11.035Z,62.21
2023-04-13T18:31:12.834Z,62.35
2023-04-13T18:34:14.613Z,62.46
2023-04-13T18:37:16.350Z,62.53
2023-04-13T18:40:18.058Z,62.40
2023-04-13T18:43:19.890Z,62.57
2023-04-13T18:46:21.702Z,62.54
2023-04-13T18:49:23.505Z,62.76
2023-04-13T18:52:25.570Z,62.94
2023-04-13T18:55:28.042Z,62.85
2023-04-13T18:58:29.802Z,62.88
2023-04-13T19:01:31.832Z,63.01
2023-04-13T19:04:34.538Z,63.08
2023-04-13T19:07:36.439Z,63.25
2023-04-13T19:10:38.472Z,63.27
2023-04-13T19:13:40.158Z,63.23
2023-04-13T19:16:44.877Z,63.34
2023-04-13T19:19:48.026Z,63.39
2023-04-13T19:22:52.712Z,63.39
2023-04-13T19:25:54.517Z,63.56
2023-04-13T19:28:56.248Z,63.51
2023-04-13T19:31:58.460Z,63.62
2023-04-13T19:35:00.231Z,63.69
2023-04-13T19:38:01.971Z,63.81
2023-04-13T19:41:03.684Z,63.78
2023-04-13T19:44:07.220Z,63.89
2023-04-13T19:47:08.923Z,63.88
2023-04-13T19:50:13.700Z,63.99
2023-04-13T19:53:15.524Z,63.91
2023-04-13T19:56:17.764Z,63.92
2023-04-13T19:59:19.480Z,64.04
2023-04-13T20:02:21.533Z,63.91
2023-04-13T20:05:24.189Z,63.98
2023-04-13T20:08:26.040Z,63.95
2023-04-13T20:11:27.705Z,63.94
2023-04-13T20:14:29.627Z,64.05
2023-04-13T20:17:31.439Z,63.98
2023-04-13T20:20:34.870Z,64.16
2023-04-13T20:23:37.015Z,64.21
2023-04-13T20:26:39.152Z,64.24
2023-04-13T20:29:41.100Z,64.32
2023-04-13T20:32:42.853Z,64.27
2023-04-13T20:35:44.705Z,64.41
2023-04-13T20:38:47.621Z,64.47
2023-04-13T20:41:54.158Z,64.43
2023-04-13T20:44:58.897Z,64.51
2023-04-13T20:51:23.171Z,64.57
2023-04-13T20:54:24.812Z,64.77
2023-04-13T20:57:26.933Z,64.71
2023-04-13T21:00:29.054Z,64.69
2023-04-13T21:03:31.262Z,64.76
2023-04-13T21:06:35.420Z,64.79
2023-04-13T21:09:37.596Z,64.83
2023-04-13T21:12:39.312Z,64.82
2023-04-13T21:15:44.747Z,64.96
2023-04-13T21:18:47.217Z,64.96
2023-04-13T21:21:48.923Z,64.99
2023-04-13T21:24:50.661Z,65.03
2023-04-13T21:27:52.376Z,65.16
2023-04-13T21:30:54.202Z,65.13
2023-04-13T21:33:55.950Z,65.13
2023-04-13T21:36:59.849Z,65.08
2023-04-13T21:40:01.845Z,65.11
2023-04-13T21:43:03.724Z,65.16
2023-04-13T21:46:05.470Z,65.30
2023-04-13T21:49:07.229Z,65.36
2023-04-13T21:52:09.409Z,65.39
2023-04-13T21:55:17.022Z,65.30
2023-04-13T21:58:19.047Z,65.42
2023-04-13T22:01:20.844Z,65.43
2023-04-13T22:04:22.856Z,65.36
2023-04-13T22:07:38.999Z,65.48
2023-04-13T22:10:43.766Z,65.44
2023-04-13T22:13:45.550Z,65.48
2023-04-13T22:16:48.739Z,65.55
2023-04-13T22:19:50.624Z,65.61
2023-04-13T22:22:52.310Z,65.67
2023-04-13T22:26:00.838Z,65.67
2023-04-13T22:29:02.810Z,65.60
2023-04-13T22:32:05.032Z,65.72
2023-04-13T22:35:07.114Z,65.77
2023-04-13T22:38:08.863Z,65.84
2023-04-13T22:41:10.642Z,65.81
2023-04-13T22:44:12.445Z,65.84
2023-04-13T22:47:14.196Z,65.88
2023-04-13T22:50:16.102Z,65.92
2023-04-13T22:53:17.780Z,65.93
2023-04-13T22:56:19.467Z,66.00
2023-04-13T22:59:21.234Z,66.01
2023-04-13T23:02:23.046Z,65.96
2023-04-13T23:05:24.834Z,66.20
2023-04-13T23:08:28.635Z,66.10
2023-04-13T23:11:30.467Z,66.10
2023-04-13T23:14:32.313Z,66.25
2023-04-13T23:17:34.250Z,66.21
2023-04-13T23:20:36.069Z,66.28
2023-04-13T23:23:38.729Z,66.20
2023-04-13T23:26:40.458Z,66.31
2023-04-13T23:29:44.910Z,66.32
2023-04-13T23:32:46.699Z,66.32
2023-04-13T23:35:51.856Z,66.50
2023-04-13T23:38:53.725Z,66.53
2023-04-13T23:41:55.508Z,66.37
2023-04-13T23:44:57.210Z,66.39
2023-04-13T23:47:58.947Z,66.60
2023-04-13T23:51:00.793Z,66.55
2023-04-13T23:54:02.563Z,66.64
2023-04-13T23:57:04.258Z,66.54
